Flight Track Log - Related Links

Times and Time Zones

All times are in EDT time to prevent confusion due to time zone crossing. See the DAL268 flight status page for this flight to view local times or setup timezone preferences in your user account.

Time Position Orientation Groundspeed Altitude Reporting Facility
EDT Latitude Longitude Course Direction KTS MPH feet Rate Location/Type
Mon 06:34:14 PM 33.6333 -84.5000 64° Northeast 207 238 2,700  Level Atlanta TRACON
Mon 06:35:14 PM 33.6000 -84.5667 239° Southwest 255 293 4,600 2,238 Climbing Atlanta TRACON
Mon 06:36:00 PM 33.7138 -84.0161 101° East  Level FlightAware Approximate
Mon 06:36:20 PM 33.5167 -84.5833 189° South 277 319 7,400  Level Atlanta TRACON
Mon 06:37:00 PM 33.6913 -83.8807 101° East  Level FlightAware Approximate
Mon 06:38:00 PM 33.6687 -83.7454 101° East  Level FlightAware Approximate
Mon 06:38:44 PM 33.4556 -84.3875 110° East 272 313 11,400  Level Atlanta Center
Mon 06:39:00 PM 33.6587 -83.6121 64° Northeast  Level FlightAware Approximate
Mon 06:39:44 PM 33.4622 -84.2628 86° East 345 397 13,000  Level Atlanta Center
Mon 06:40:44 PM 33.5125 -84.1458 63° Northeast 355 409 15,200 2,150 Climbing Atlanta Center
Mon 06:41:44 PM 33.5606 -84.0214 65° Northeast 388 447 17,300 1,800 Climbing Atlanta Center
Mon 06:42:44 PM 33.6083 -83.8942 66° East 407 468 18,800 1,650 Climbing Atlanta Center
Mon 06:43:44 PM 33.6353 -83.7544 77° East 420 483 20,600 1,500 Climbing Atlanta Center
Mon 06:44:44 PM 33.6703 -83.6119 74° East 433 498 21,800 1,100 Climbing Atlanta Center
Mon 06:45:44 PM 33.7200 -83.4869 64° Northeast 445 512 22,800 1,200 Climbing Atlanta Center
Mon 06:46:44 PM 33.7778 -83.3489 63° Northeast 459 528 24,200 1,350 Climbing Atlanta Center
Mon 06:47:44 PM 33.8331 -83.2111 64° Northeast 464 534 25,500 1,450 Climbing Atlanta Center
Mon 06:48:44 PM 33.8906 -83.0678 64° Northeast 464 534 27,100 1,400 Climbing Atlanta Center
Mon 06:49:44 PM 33.9500 -82.9269 63° Northeast 464 534 28,300 1,100 Climbing Atlanta Center
Mon 06:50:44 PM 34.0050 -82.7858 65° Northeast 464 534 29,300 1,050 Climbing Atlanta Center
Mon 06:51:44 PM 34.0597 -82.6472 64° Northeast 464 534 30,400 850 Climbing Atlanta Center
Mon 06:52:44 PM 34.1103 -82.5083 66° East 459 528 31,000 500 Climbing Atlanta Center
Mon 06:53:44 PM 34.1750 -82.3564 63° Northeast 454 522 31,400 500 Climbing Atlanta Center
Mon 06:54:44 PM 34.2294 -82.2147 65° Northeast 454 522 32,000 600 Climbing Atlanta Center
Mon 06:55:44 PM 34.2900 -82.0778 62° Northeast 459 528 32,600 500 Climbing Atlanta Center
Mon 06:56:44 PM 34.3567 -81.9453 59° Northeast 459 528 33,000 200 Climbing Atlanta Center
Mon 06:57:44 PM 34.4231 -81.8128 59° Northeast 459 528 33,000  Level Atlanta Center
Mon 06:58:44 PM 34.4894 -81.6800 59° Northeast 459 528 33,000  Level Atlanta Center
Mon 06:59:44 PM 34.5497 -81.5597 59° Northeast 466 536 33,000  Level Atlanta Center
Mon 07:00:44 PM 34.6158 -81.4239 59° Northeast 466 536 33,000  Level Atlanta Center
Mon 07:01:44 PM 34.6878 -81.2728 60° Northeast 461 531 33,000  Level Atlanta Center
Mon 07:02:44 PM 34.7533 -81.1392 59° Northeast 461 531 33,000  Level Atlanta Center
Mon 07:03:44 PM 34.8211 -81.0050 58° Northeast 461 531 33,000  Level Atlanta Center
Mon 07:04:44 PM 34.8786 -80.8842 60° Northeast 467 537 33,000  Level Atlanta Center
Mon 07:05:44 PM 34.9458 -80.7447 60° Northeast 461 531 33,000  Level Atlanta Center
Mon 07:07:58 PM 35.0964 -80.4278 60° Northeast 463 533 33,000  Level Washington Center
Mon 07:08:58 PM 35.1556 -80.3019 60° Northeast 463 533 33,000  Level Washington Center
Mon 07:09:56 PM 35.2194 -80.1658 60° Northeast 462 532 33,000  Level Washington Center
Mon 07:10:56 PM 35.2958 -80.0200 57° Northeast 462 532 33,000  Level Washington Center
Mon 07:11:57 PM 35.3636 -79.8786 60° Northeast 457 526 33,000  Level Washington Center
Mon 07:12:58 PM 35.4186 -79.7361 65° Northeast 457 526 33,000  Level Washington Center
Mon 07:13:58 PM 35.4633 -79.5856 70° East 462 532 33,000  Level Washington Center
Mon 07:14:57 PM 35.5058 -79.4372 71° East 462 532 33,000  Level Washington Center
Mon 07:15:56 PM 35.5483 -79.2861 71° East 462 532 33,000  Level Washington Center
Mon 07:16:57 PM 35.5856 -79.1525 71° East 462 532 33,000  Level Washington Center
Mon 07:17:58 PM 35.6300 -78.9883 72° East 457 526 33,000  Level Washington Center
Mon 07:18:58 PM 35.6739 -78.8392 70° East 457 526 33,000  Level Washington Center
Mon 07:19:56 PM 35.7128 -78.7053 70° East 457 526 33,000  Level Washington Center
Mon 07:20:56 PM 35.7544 -78.5508 72° East 464 534 33,000  Level Washington Center
Mon 07:21:57 PM 35.7978 -78.3986 71° East 464 534 33,000  Level Washington Center
Mon 07:22:55 PM 35.8633 -78.2600 60° Northeast 464 534 33,000  Level Washington Center
Mon 07:23:56 PM 35.9311 -78.1264 58° Northeast 458 527 33,000  Level Washington Center
Mon 07:24:56 PM 36.0006 -77.9925 57° Northeast 458 527 33,000  Level Washington Center
Mon 07:25:58 PM 36.0700 -77.8611 57° Northeast 458 527 33,000  Level Washington Center
Mon 07:26:58 PM 36.1350 -77.7267 59° Northeast 458 527 33,000  Level Washington Center
Mon 07:27:56 PM 36.2039 -77.5947 57° Northeast 458 527 33,000  Level Washington Center
Mon 07:28:57 PM 36.2772 -77.4469 58° Northeast 458 527 33,000  Level Washington Center
Mon 07:29:58 PM 36.3439 -77.3119 58° Northeast 458 527 33,000  Level Washington Center
Mon 07:30:56 PM 36.4106 -77.1742 59° Northeast 453 521 33,000  Level Washington Center
Mon 07:31:56 PM 36.4811 -77.0411 57° Northeast 458 527 33,000  Level Washington Center
Mon 07:32:57 PM 36.5494 -76.9028 58° Northeast 458 527 33,000  Level Washington Center
Mon 07:33:58 PM 36.6236 -76.7981 49° Northeast 458 527 33,000  Level Washington Center
Mon 07:34:56 PM 36.7353 -76.6933 37° Northeast 450 518 33,000  Level Washington Center
Mon 07:35:57 PM 36.8403 -76.5989 36° Northeast 450 518 33,000  Level Washington Center
Mon 07:36:57 PM 36.9453 -76.5042 36° Northeast 457 526 33,000  Level Washington Center
Mon 07:37:57 PM 37.0483 -76.4089 36° Northeast 457 526 33,000  Level Washington Center
Mon 07:38:58 PM 37.1428 -76.3214 36° Northeast 457 526 33,000  Level Washington Center
Mon 07:39:58 PM 37.2456 -76.2283 36° Northeast 457 526 33,000  Level Washington Center
Mon 07:40:57 PM 37.3628 -76.1250 35° Northeast 462 532 33,000  Level Washington Center
Mon 07:41:57 PM 37.4653 -76.0314 36° Northeast 457 526 33,000  Level Washington Center
Mon 07:42:58 PM 37.5678 -75.9297 38° Northeast 457 526 33,000  Level Washington Center
Mon 07:43:56 PM 37.6703 -75.8331 37° Northeast 457 526 33,000  Level Washington Center
Mon 07:44:57 PM 37.7747 -75.7364 36° Northeast 457 526 33,000  Level Washington Center
Mon 07:45:56 PM 37.8769 -75.6417 36° Northeast 457 526 33,000  Level Washington Center
Mon 07:46:56 PM 37.9814 -75.5444 36° Northeast 457 526 33,000  Level Washington Center
Mon 07:47:57 PM 38.0833 -75.4519 36° Northeast 457 526 33,000  Level Washington Center
Mon 07:48:57 PM 38.1958 -75.3856 25° Northeast 446 513 33,000 -350 Level Washington Center
Mon 07:49:57 PM 38.3083 -75.3139 27° Northeast 441 507 32,300 -992 Descending Washington Center
Mon 07:50:58 PM 38.4061 -75.2447 29° Northeast 446 513 31,000 -655 Descending Washington Center
Mon 07:51:56 PM 38.5186 -75.1725 27° Northeast 446 513 31,000  Level Washington Center
Mon 07:52:58 PM 38.6328 -75.1000 26° Northeast 446 513 31,000  Level Washington Center
Mon 07:53:58 PM 38.7472 -75.0328 25° Northeast 441 507 31,000  Level Washington Center
Mon 07:54:59 PM 38.8594 -74.9597 27° Northeast 446 513 31,000  Level Washington Center
Mon 07:55:56 PM 38.9717 -74.8894 26° Northeast 446 513 31,000 -51 Level Washington Center
Mon 07:56:56 PM 39.0817 -74.8133 28° Northeast 446 513 30,900 -1,932 Descending Washington Center
Mon 07:58:53 PM 39.2775 -74.6114 39° Northeast 452 520 25,300 -2,743 Descending New York Center
Mon 07:59:51 PM 39.3706 -74.5092 40° Northeast 444 511 22,900 -2,390 Descending New York Center
Mon 08:00:51 PM 39.4614 -74.4089 40° Northeast 429 494 20,600 -2,164 Descending New York Center
Mon 08:01:53 PM 39.5475 -74.3139 40° Northeast 415 478 18,500 -1,279 Descending New York Center
Mon 08:02:53 PM 39.6250 -74.2314 39° Northeast 408 470 18,000 -1,100 Descending New York Center
Mon 08:03:53 PM 39.7156 -74.1333 40° Northeast 395 455 16,300 -1,932 Descending New York Center
Mon 08:04:51 PM 39.7953 -74.0453 40° Northeast 388 447 14,200 -2,136 Descending New York Center
Mon 08:05:51 PM 39.8767 -73.9653 37° Northeast 374 430 12,100 -1,574 Descending New York Center
Mon 08:06:53 PM 39.9550 -73.9122 27° Northeast 355 409 11,000 -550 Descending New York Center
Mon 08:07:51 PM 40.0317 -73.8586 28° Northeast 324 373 11,000 -458 Level New York Center
Mon 08:08:51 PM 40.0958 -73.7883 40° Northeast 298 343 10,100 -1,417 Descending New York Center
Mon 08:09:58 PM 40.1833 -73.7333 26° Northeast 292 336 8,000 -1,748 Descending New York TRACON
Mon 08:10:58 PM 40.2333 -73.8000 315° West 276 318 6,400 -1,550 Descending New York TRACON
Mon 08:11:58 PM 40.2667 -73.8833 298° West 268 308 4,900 -1,263 Descending New York TRACON
Mon 08:12:52 PM 40.2961 -73.9467 301° West 258 297 4,000 -637 Descending New York Center
Mon 08:13:51 PM 40.3361 -74.0058 312° West 225 259 3,700 -496 Descending New York Center
Mon 08:14:53 PM 40.3861 -74.0000 North 179 206 3,000 -353 Descending New York Center
Mon 08:15:50 PM 40.4450 -73.9889 North 185 213 3,000  Level New York Center
Mon 08:16:52 PM 40.5000 -73.9667 17° North 198 228 3,000 -188 Level New York TRACON
Mon 08:17:58 PM 40.5500 -73.9500 14° North 203 234 2,600 -364 Descending New York TRACON

Login

Don't have an account? Register now (free) for customized features, flight alerts, and more!